Time;durP1;ratioP1;P1;durP2;ratioP2;P2;SDS_P1;SDS_P2;PMS_P1;PMS_P2;Temp;Humidity;BMP_temperature;BMP_pressure;BME280_temperature;BME280_humidity;BME280_pressure;Samples;Min_cycle;Max_cycle;Signal;HPM_P1;HPM_P2
2022/06/28 00:02:20;;;;;;;20.33;13.20;;;;;;;-147.27;100.00;65176.34;4965809;28;19998;-53
2022/06/28 00:04:45;;;;;;;20.13;12.57;;;;;;;-147.27;100.00;65176.34;4967387;28;20046;-51
2022/06/28 00:07:11;;;;;;;18.15;12.40;;;;;;;-147.27;100.00;65176.34;4976274;28;20270;-51
2022/06/28 00:09:36;;;;;;;17.13;12.25;;;;;;;-147.27;100.00;65176.34;4964826;28;20032;-51
2022/06/28 00:12:02;;;;;;;18.20;12.97;;;;;;;-147.27;100.00;65176.34;4973907;28;20094;-46
2022/06/28 00:17:12;;;;;;;21.80;14.87;;;;;;;-147.27;100.00;65176.34;4976841;28;20062;-49
2022/06/28 00:19:37;;;;;;;35.20;18.05;;;;;;;-147.27;100.00;65176.34;4979821;28;20257;-52
2022/06/28 00:22:03;;;;;;;34.00;19.15;;;;;;;-147.27;100.00;65176.34;4980055;28;20059;-48
2022/06/28 00:24:29;;;;;;;21.45;13.18;;;;;;;-147.27;100.00;65176.34;4981241;28;20065;-49
2022/06/28 00:26:55;;;;;;;20.02;13.05;;;;;;;-147.27;100.00;65176.34;4978010;28;20039;-48
2022/06/28 00:29:21;;;;;;;21.90;14.88;;;;;;;-147.27;100.00;65176.34;4974361;28;20041;-49
2022/06/28 00:31:48;;;;;;;26.48;16.23;;;;;;;-147.27;100.00;65176.34;4977751;28;20035;-51
2022/06/28 00:34:14;;;;;;;;;;;;;;;-147.27;100.00;65176.34;4989913;28;20047;-51
2022/06/28 00:36:39;;;;;;;24.90;15.13;;;;;;;-147.27;100.00;65176.34;4976589;28;19974;-52
2022/06/28 00:39:06;;;;;;;23.73;13.60;;;;;;;-147.27;100.00;65176.34;4977581;28;20491;-51
2022/06/28 00:41:31;;;;;;;;;;;;;;;-147.27;100.00;65176.34;4977034;28;20079;-47
2022/06/28 00:43:57;;;;;;;19.90;14.33;;;;;;;-147.27;100.00;65176.34;4996468;28;19918;-51
2022/06/28 00:46:23;;;;;;;26.55;16.05;;;;;;;-147.27;100.00;65176.34;4981332;28;20043;-50
2022/06/28 00:48:49;;;;;;;23.08;15.30;;;;;;;-147.27;100.00;65176.34;4988744;28;20070;-49
2022/06/28 00:51:16;;;;;;;23.63;14.85;;;;;;;-147.27;100.00;65176.34;4979548;28;20041;-51
2022/06/28 00:53:41;;;;;;;21.33;14.30;;;;;;;-147.27;100.00;65176.34;4979222;28;20074;-50
2022/06/28 00:56:07;;;;;;;24.57;15.53;;;;;;;-147.27;100.00;65176.34;4976999;28;20316;-47
2022/06/28 00:58:33;;;;;;;28.73;16.45;;;;;;;-147.27;100.00;65176.34;4979913;28;20035;-50
2022/06/28 01:00:59;;;;;;;21.42;15.20;;;;;;;-147.27;100.00;65176.34;4981400;28;20031;-49
2022/06/28 01:03:25;;;;;;;22.13;15.30;;;;;;;-147.27;100.00;65176.34;4979938;28;20058;-51
2022/06/28 01:05:52;;;;;;;30.75;16.73;;;;;;;-147.27;100.00;65176.34;4997574;28;20031;-46
2022/06/28 01:08:21;;;;;;;24.47;16.13;;;;;;;-147.27;100.00;65176.34;4976145;28;20038;-47
2022/06/28 01:10:47;;;;;;;24.52;16.58;;;;;;;-147.27;100.00;65176.34;4974462;28;20293;-49
2022/06/28 01:13:14;;;;;;;25.63;17.10;;;;;;;-147.27;100.00;65176.34;4980185;28;20036;-51
2022/06/28 01:15:41;;;;;;;25.57;16.57;;;;;;;-147.27;100.00;65176.34;4986406;28;20300;-48
2022/06/28 01:18:11;;;;;;;25.38;15.32;;;;;;;-147.27;100.00;65176.34;4977773;28;20300;-47
2022/06/28 01:20:44;;;;;;;25.67;18.03;;;;;;;-147.27;100.00;65176.34;4972292;28;20099;-52
2022/06/28 01:23:30;;;;;;;27.77;17.40;;;;;;;-147.27;100.00;65176.34;4990207;28;20269;-52
2022/06/28 01:26:30;;;;;;;25.67;16.50;;;;;;;-147.27;100.00;65176.34;4987999;28;20277;-52
2022/06/28 01:28:56;;;;;;;23.87;15.87;;;;;;;-147.27;100.00;65176.34;4980405;28;20288;-52
2022/06/28 01:31:30;;;;;;;31.47;17.90;;;;;;;-147.27;100.00;65176.34;4987614;28;20301;-48
2022/06/28 01:33:59;;;;;;;29.00;17.87;;;;;;;-147.27;100.00;65176.34;5030033;28;20286;-47
2022/06/28 01:36:24;;;;;;;26.70;17.20;;;;;;;-147.27;100.00;65176.34;5045700;28;20341;-50
2022/06/28 01:38:51;;;;;;;29.73;16.65;;;;;;;-147.27;100.00;65176.34;5044943;28;20033;-49
2022/06/28 01:41:34;;;;;;;29.50;15.90;;;;;;;-147.27;100.00;65176.34;5047891;28;20056;-51
2022/06/28 01:44:07;;;;;;;28.03;15.63;;;;;;;-147.27;100.00;65176.34;5047435;28;20089;-50
2022/06/28 01:46:38;;;;;;;31.67;16.00;;;;;;;-147.27;100.00;65176.34;5044441;28;20293;-51
2022/06/28 01:49:08;;;;;;;23.10;14.27;;;;;;;-147.27;100.00;65176.34;5041246;28;20342;-52
2022/06/28 01:51:36;;;;;;;21.13;12.97;;;;;;;-147.27;100.00;65176.34;5040903;28;20303;-50
2022/06/28 01:54:02;;;;;;;24.10;12.98;;;;;;;-147.27;100.00;65176.34;5046036;28;20278;-50
2022/06/28 01:56:32;;;;;;;25.43;14.00;;;;;;;-147.27;100.00;65176.34;5042350;28;20093;-49
2022/06/28 01:59:02;;;;;;;23.87;13.30;;;;;;;-147.27;100.00;65176.34;5046570;28;20295;-49
2022/06/28 02:01:39;;;;;;;26.97;12.70;;;;;;;-147.27;100.00;65176.34;5039300;28;20267;-47
2022/06/28 02:04:22;;;;;;;25.30;12.20;;;;;;;-147.27;100.00;65176.34;5041398;28;20270;-49
2022/06/28 02:06:55;;;;;;;22.17;12.13;;;;;;;-147.27;100.00;65176.34;5044312;28;20255;-52
2022/06/28 02:09:23;;;;;;;19.37;11.80;;;;;;;-147.27;100.00;65176.34;5045742;28;20883;-52
2022/06/28 02:11:49;;;;;;;25.63;12.57;;;;;;;-147.27;100.00;65176.34;5045700;28;20283;-49
2022/06/28 02:14:18;;;;;;;26.53;11.90;;;;;;;-147.27;100.00;65176.34;5044791;28;20046;-50
2022/06/28 02:16:45;;;;;;;24.70;11.52;;;;;;;-147.27;100.00;65176.34;5046001;28;20266;-48
2022/06/28 02:19:11;;;;;;;;;;;;;;;-147.27;100.00;65176.34;5048688;28;20036;-47
2022/06/28 02:21:40;;;;;;;20.08;10.13;;;;;;;-147.27;100.00;65176.34;5044530;28;19921;-53
2022/06/28 02:24:07;;;;;;;17.23;10.80;;;;;;;-147.27;100.00;65176.34;5039963;28;20033;-50
2022/06/28 02:26:32;;;;;;;;;;;;;;;-147.27;100.00;65176.34;5046156;28;20335;-49
2022/06/28 02:28:59;;;;;;;16.33;8.87;;;;;;;-147.27;100.00;65176.34;5043848;28;19913;-48
2022/06/28 02:31:25;;;;;;;21.73;8.80;;;;;;;-147.27;100.00;65176.34;5047322;28;20060;-47
2022/06/28 02:33:51;;;;;;;17.60;9.02;;;;;;;-147.27;100.00;65176.34;4949346;28;1014248;-54
2022/06/28 02:41:42;;;;;;;15.97;8.10;;;;;;;-147.27;100.00;65176.34;4947430;28;20255;-50
2022/06/28 02:44:08;;;;;;;18.00;8.23;;;;;;;-147.27;100.00;65176.34;4949054;28;20290;-48
2022/06/28 02:46:33;;;;;;;16.27;7.47;;;;;;;-147.27;100.00;65176.34;4948095;28;20040;-50
2022/06/28 02:48:59;;;;;;;16.88;6.82;;;;;;;-147.27;100.00;65176.34;4946972;28;20047;-53
2022/06/28 02:51:24;;;;;;;16.85;7.25;;;;;;;-147.27;100.00;65176.34;4966523;28;20109;-48
2022/06/28 02:53:54;;;;;;;15.30;6.55;;;;;;;-147.27;100.00;65176.34;4953576;28;20070;-46
2022/06/28 02:56:20;;;;;;;15.23;6.63;;;;;;;-147.27;100.00;65176.34;4947870;28;20028;-49
2022/06/28 02:58:46;;;;;;;23.17;8.27;;;;;;;-147.27;100.00;65176.34;4952693;28;20372;-51
2022/06/28 03:01:11;;;;;;;23.92;12.65;;;;;;;-147.27;100.00;65176.34;4955181;28;20039;-52
2022/06/28 03:03:38;;;;;;;25.17;12.52;;;;;;;-147.27;100.00;65176.34;4958553;28;20050;-51
2022/06/28 03:06:04;;;;;;;33.92;11.38;;;;;;;-147.27;100.00;65176.34;4955990;28;20036;-47
2022/06/28 03:08:29;;;;;;;;;;;;;;;-147.27;100.00;65176.34;4955349;28;20181;-48
2022/06/28 03:10:56;;;;;;;17.83;8.68;;;;;;;-147.27;100.00;65176.34;4944339;28;19923;-50
2022/06/28 03:13:22;;;;;;;19.47;8.10;;;;;;;-147.27;100.00;65176.34;4957285;28;20107;-47
2022/06/28 03:15:47;;;;;;;24.20;12.15;;;;;;;-147.27;100.00;65176.34;4953968;28;20266;-51
2022/06/28 03:18:14;;;;;;;27.23;14.00;;;;;;;-147.27;100.00;65176.34;4957625;28;20047;-52
2022/06/28 03:20:40;;;;;;;26.53;14.93;;;;;;;-147.27;100.00;65176.34;4956151;28;20274;-53
2022/06/28 03:23:06;;;;;;;27.27;12.70;;;;;;;-147.27;100.00;65176.34;4946010;28;20036;-53
2022/06/28 03:25:32;;;;;;;18.90;8.27;;;;;;;-147.27;100.00;65176.34;4949557;28;20270;-49
2022/06/28 03:27:59;;;;;;;13.75;7.22;;;;;;;-147.27;100.00;65176.34;4948566;28;20034;-53
2022/06/28 03:30:26;;;;;;;19.50;8.53;;;;;;;-147.27;100.00;65176.34;4952803;28;20052;-49
2022/06/28 03:32:52;;;;;;;13.90;7.03;;;;;;;-147.27;100.00;65176.34;4951403;28;20318;-52
2022/06/28 03:35:24;;;;;;;20.03;7.10;;;;;;;-147.27;100.00;65176.34;4959480;28;20097;-49
2022/06/28 03:37:51;;;;;;;10.63;5.23;;;;;;;-147.27;100.00;65176.34;4961445;29;20266;-47
2022/06/28 03:40:17;;;;;;;10.60;6.03;;;;;;;-147.27;100.00;65176.34;4959273;29;20278;-53
2022/06/28 03:42:47;;;;;;;13.43;5.37;;;;;;;-147.27;100.00;65176.34;4957829;28;20047;-51
2022/06/28 03:45:13;;;;;;;12.68;5.47;;;;;;;-147.27;100.00;65176.34;4959901;28;20298;-48
2022/06/28 03:47:42;;;;;;;13.73;5.30;;;;;;;-147.27;100.00;65176.34;4955821;29;20046;-54
2022/06/28 03:50:41;;;;;;;12.63;5.00;;;;;;;-147.27;100.00;65176.34;4929623;28;20293;-54
2022/06/28 03:53:24;;;;;;;8.87;5.30;;;;;;;-147.27;100.00;65176.34;4956316;29;20274;-51
2022/06/28 03:56:06;;;;;;;10.83;4.63;;;;;;;-147.27;100.00;65176.34;4957488;28;20297;-50
2022/06/28 03:58:32;;;;;;;;;;;;;;;-147.27;100.00;65176.34;4959373;28;20352;-49
2022/06/28 04:00:58;;;;;;;11.00;4.70;;;;;;;-147.27;100.00;65176.34;4957484;29;19922;-47
2022/06/28 04:03:25;;;;;;;9.67;4.77;;;;;;;-147.27;100.00;65176.34;4959802;28;20055;-50
2022/06/28 04:05:51;;;;;;;19.50;9.40;;;;;;;-147.27;100.00;65176.34;4960591;28;20273;-53
2022/06/28 04:08:17;;;;;;;17.42;9.32;;;;;;;-147.27;100.00;65176.34;4954417;29;20094;-52
2022/06/28 04:13:44;;;;;;;9.67;5.23;;;;;;;-147.27;100.00;65176.34;4960134;29;20278;-50
2022/06/28 04:16:11;;;;;;;13.43;5.53;;;;;;;-147.27;100.00;65176.34;4957175;29;20278;-50
2022/06/28 04:18:36;;;;;;;8.80;4.72;;;;;;;-147.27;100.00;65176.34;4958044;28;20437;-50
2022/06/28 04:21:16;;;;;;;13.43;4.47;;;;;;;-147.27;100.00;65176.34;4956138;29;20103;-53
2022/06/28 04:23:43;;;;;;;11.10;4.27;;;;;;;-147.27;100.00;65176.34;4956101;28;20282;-52
2022/06/28 04:26:09;;;;;;;8.00;4.00;;;;;;;-147.27;100.00;65176.34;4947941;28;20278;-50
2022/06/28 04:28:39;;;;;;;9.87;3.90;;;;;;;-147.27;100.00;65176.34;4956656;28;20040;-47
2022/06/28 04:31:09;;;;;;;7.77;4.17;;;;;;;-147.27;100.00;65176.34;4960146;28;20282;-47
2022/06/28 04:33:36;;;;;;;14.88;4.30;;;;;;;-147.27;100.00;65176.34;5009885;28;20286;-49
2022/06/28 04:36:02;;;;;;;14.68;5.63;;;;;;;-147.27;100.00;65176.34;5044207;28;20044;-49
2022/06/28 04:38:30;;;;;;;11.67;4.33;;;;;;;-147.27;100.00;65176.34;5050663;28;20036;-48
2022/06/28 04:41:03;;;;;;;11.83;4.17;;;;;;;-147.27;100.00;65176.34;5041992;28;20530;-49
2022/06/28 04:43:47;;;;;;;13.03;4.50;;;;;;;-147.27;100.00;65176.34;5042861;28;20262;-49
2022/06/28 04:46:20;;;;;;;14.10;4.20;;;;;;;-147.27;100.00;65176.34;5040634;28;20275;-50
2022/06/28 04:48:47;;;;;;;11.57;4.10;;;;;;;-147.27;100.00;65176.34;5044886;28;20271;-50
2022/06/28 04:51:14;;;;;;;9.03;4.00;;;;;;;-147.27;100.00;65176.34;5045361;28;20291;-50
2022/06/28 04:53:44;;;;;;;14.23;4.43;;;;;;;-147.27;100.00;65176.34;5046724;28;20373;-51
2022/06/28 04:56:11;;;;;;;17.87;4.47;;;;;;;-147.27;100.00;65176.34;5042576;28;20293;-51
2022/06/28 04:58:40;;;;;;;14.70;4.30;;;;;;;-147.27;100.00;65176.34;5044620;28;20282;-52
2022/06/28 05:01:07;;;;;;;12.93;4.97;;;;;;;-147.27;100.00;65176.34;5043194;28;20259;-49
2022/06/28 05:03:32;;;;;;;16.93;4.47;;;;;;;-147.27;100.00;65176.34;5045208;28;20301;-50
2022/06/28 05:06:01;;;;;;;13.73;4.13;;;;;;;-147.27;100.00;65176.34;5046554;28;20052;-52
2022/06/28 05:08:28;;;;;;;11.17;3.90;;;;;;;-147.27;100.00;65176.34;5042584;28;20278;-49
2022/06/28 05:10:59;;;;;;;13.83;4.87;;;;;;;-147.27;100.00;65176.34;5044230;28;20290;-51
2022/06/28 05:13:44;;;;;;;11.53;4.23;;;;;;;-147.27;100.00;65176.34;5046534;28;20269;-53
2022/06/28 05:16:12;;;;;;;12.03;4.00;;;;;;;-147.27;100.00;65176.34;5046396;28;20271;-50
2022/06/28 05:18:38;;;;;;;9.90;3.92;;;;;;;-147.27;100.00;65176.34;5042454;28;20294;-52
2022/06/28 05:21:07;;;;;;;11.87;3.47;;;;;;;-147.27;100.00;65176.34;5047349;28;20045;-50
2022/06/28 05:23:37;;;;;;;13.70;4.47;;;;;;;-147.27;100.00;65176.34;5041675;28;20293;-50
2022/06/28 05:26:21;;;;;;;13.70;4.30;;;;;;;-147.27;100.00;65176.34;5044837;28;20302;-49
2022/06/28 05:29:08;;;;;;;13.25;4.55;;;;;;;-147.27;100.00;65176.34;5047753;28;20275;-47
2022/06/28 05:31:35;;;;;;;20.73;4.50;;;;;;;-147.27;100.00;65176.34;5048624;28;20099;-49
2022/06/28 05:34:01;;;;;;;16.40;4.20;;;;;;;-147.27;100.00;65176.34;4968261;28;20056;-50
2022/06/28 05:36:27;;;;;;;10.70;3.83;;;;;;;-147.27;100.00;65176.34;4950151;28;20270;-50
2022/06/28 05:38:53;;;;;;;16.58;4.75;;;;;;;-147.27;100.00;65176.34;4950799;28;20039;-49
2022/06/28 05:41:19;;;;;;;21.73;4.20;;;;;;;-147.27;100.00;65176.34;4967477;28;20035;-48
2022/06/28 05:43:45;;;;;;;13.27;4.35;;;;;;;-147.27;100.00;65176.34;4957919;28;20076;-52
2022/06/28 05:46:10;;;;;;;18.42;4.47;;;;;;;-147.27;100.00;65176.34;4948402;28;20103;-49
2022/06/28 05:48:36;;;;;;;26.50;4.93;;;;;;;-147.27;100.00;65176.34;4945384;28;20044;-50
2022/06/28 05:51:03;;;;;;;24.77;5.37;;;;;;;-147.27;100.00;65176.34;4947551;28;20040;-49
2022/06/28 05:53:28;;;;;;;11.77;4.07;;;;;;;-147.27;100.00;65176.34;4947125;28;20039;-48
2022/06/28 05:55:54;;;;;;;17.70;4.90;;;;;;;-147.27;100.00;65176.34;4939587;28;20290;-51
2022/06/28 05:58:19;;;;;;;16.00;4.63;;;;;;;-147.27;100.00;65176.34;4942876;28;20097;-47
2022/06/28 06:00:45;;;;;;;17.50;5.00;;;;;;;-147.27;100.00;65176.34;4943866;28;20024;-54
2022/06/28 06:03:10;;;;;;;23.00;5.10;;;;;;;-147.27;100.00;65176.34;4946514;28;20063;-50
2022/06/28 06:05:36;;;;;;;21.95;6.57;;;;;;;-147.27;100.00;65176.34;4947594;28;20059;-50
2022/06/28 06:08:02;;;;;;;21.65;6.30;;;;;;;-147.27;100.00;65176.34;4941773;28;20091;-48
2022/06/28 06:10:28;;;;;;;15.73;5.07;;;;;;;-147.27;100.00;65176.34;4943312;28;20029;-47
2022/06/28 06:12:54;;;;;;;13.25;4.15;;;;;;;-147.27;100.00;65176.34;4942917;28;20050;-47
2022/06/28 06:15:20;;;;;;;20.52;4.38;;;;;;;-147.27;100.00;65176.34;4941259;28;20071;-51
2022/06/28 06:17:46;;;;;;;;;;;;;;;-147.27;100.00;65176.34;4943603;28;20036;-49
2022/06/28 06:20:11;;;;;;;18.33;4.57;;;;;;;-147.27;100.00;65176.34;4944087;28;19926;-50
2022/06/28 06:22:37;;;;;;;18.85;5.53;;;;;;;-147.27;100.00;65176.34;4941544;29;20035;-49
2022/06/28 06:25:16;;;;;;;15.70;4.83;;;;;;;-147.27;100.00;65176.34;4945028;28;20036;-48
2022/06/28 06:27:44;;;;;;;18.10;4.80;;;;;;;-147.27;100.00;65176.34;4946481;28;20267;-53
2022/06/28 06:30:10;;;;;;;21.57;6.17;;;;;;;-147.27;100.00;65176.34;4948514;28;20295;-52
2022/06/28 06:32:43;;;;;;;19.57;4.40;;;;;;;-147.27;100.00;65176.34;4940309;28;20278;-53
2022/06/28 06:35:12;;;;;;;19.23;5.17;;;;;;;-147.27;100.00;65176.34;4946973;28;20333;-49
2022/06/28 06:37:37;;;;;;;20.65;5.07;;;;;;;-147.27;100.00;65176.34;4938902;28;20282;-48
2022/06/28 06:40:03;;;;;;;23.58;5.85;;;;;;;-147.27;100.00;65176.34;4949763;28;20044;-53
2022/06/28 06:42:29;;;;;;;;;;;;;;;-147.27;100.00;65176.34;4940291;28;20031;-49
2022/06/28 06:45:00;;;;;;;21.73;4.80;;;;;;;-147.27;100.00;65176.34;4942727;28;19931;-52
2022/06/28 06:47:27;;;;;;;23.93;5.63;;;;;;;-147.27;100.00;65176.34;4939069;28;20270;-52
2022/06/28 06:49:52;;;;;;;24.97;5.37;;;;;;;-147.27;100.00;65176.34;4948912;28;20278;-51
2022/06/28 06:52:18;;;;;;;23.08;5.40;;;;;;;-147.27;100.00;65176.34;4943038;29;20055;-52
2022/06/28 06:54:46;;;;;;;25.87;6.03;;;;;;;-147.27;100.00;65176.34;4949840;28;20043;-51
2022/06/28 06:57:14;;;;;;;15.60;3.83;;;;;;;-147.27;100.00;65176.34;4943995;28;20032;-49
2022/06/28 06:59:39;;;;;;;15.87;4.60;;;;;;;-147.27;100.00;65176.34;4945478;28;20120;-47
2022/06/28 07:02:06;;;;;;;18.50;5.50;;;;;;;-147.27;100.00;65176.34;4932806;28;20040;-48
2022/06/28 07:04:43;;;;;;;19.37;4.57;;;;;;;-147.27;100.00;65176.34;4928735;28;20024;-49
2022/06/28 07:07:08;;;;;;;24.87;4.70;;;;;;;-147.27;100.00;65176.34;4939548;29;20032;-49
2022/06/28 07:09:33;;;;;;;21.57;5.30;;;;;;;-147.27;100.00;65176.34;4937030;28;20317;-52
2022/06/28 07:11:59;;;;;;;19.38;4.50;;;;;;;-147.27;100.00;65176.34;4933453;28;20059;-49
2022/06/28 07:14:25;;;;;;;;;;;;;;;-147.27;100.00;65176.34;4934074;28;20036;-51
2022/06/28 07:16:51;;;;;;;22.87;4.20;;;;;;;-147.27;100.00;65176.34;4935658;28;19933;-50
2022/06/28 07:19:17;;;;;;;32.97;5.32;;;;;;;-147.27;100.00;65176.34;4939024;28;20040;-53
2022/06/28 07:21:44;;;;;;;20.00;3.75;;;;;;;-147.27;100.00;65176.34;4935250;28;20032;-50
2022/06/28 07:24:11;;;;;;;16.70;4.20;;;;;;;-147.27;100.00;65176.34;4935061;28;20107;-52
2022/06/28 07:26:36;;;;;;;29.40;5.27;;;;;;;-147.27;100.00;65176.34;4938114;28;20036;-49
2022/06/28 07:29:03;;;;;;;14.00;3.70;;;;;;;-147.27;100.00;65176.34;4933184;28;20058;-50
2022/06/28 07:31:30;;;;;;;27.20;4.07;;;;;;;-147.27;100.00;65176.34;4937205;28;20040;-55
2022/06/28 07:33:57;;;;;;;22.27;4.27;;;;;;;-147.27;100.00;65176.34;5001513;28;20064;-51
2022/06/28 07:36:24;;;;;;;17.30;3.67;;;;;;;-147.27;100.00;65176.34;5036129;28;20033;-52
2022/06/28 07:38:51;;;;;;;15.10;3.50;;;;;;;-147.27;100.00;65176.34;5044569;28;20037;-52
2022/06/28 07:41:20;;;;;;;19.57;3.57;;;;;;;-147.27;100.00;65176.34;5044747;28;20029;-49
2022/06/28 07:44:12;;;;;;;19.00;3.70;;;;;;;-147.27;100.00;65176.34;5019011;28;20049;-50
2022/06/28 07:46:39;;;;;;;23.73;3.92;;;;;;;-147.27;100.00;65176.34;5034704;28;20034;-49
2022/06/28 07:49:05;;;;;;;23.70;3.77;;;;;;;-147.27;100.00;65176.34;5036133;28;20032;-52
2022/06/28 07:54:17;;;;;;;24.50;3.08;;;;;;;-147.27;100.00;65176.34;5037185;28;20038;-49
2022/06/28 07:57:05;;;;;;;15.10;3.00;;;;;;;-147.27;100.00;65176.34;5034850;28;20042;-52
2022/06/28 07:59:36;;;;;;;11.93;3.00;;;;;;;-147.27;100.00;65176.34;5042342;28;20092;-53
2022/06/28 08:02:01;;;;;;;16.13;2.67;;;;;;;-147.27;100.00;65176.34;5039459;28;20036;-48
2022/06/28 08:04:32;;;;;;;13.60;2.77;;;;;;;-147.27;100.00;65176.34;5041538;28;20026;-49
2022/06/28 08:06:59;;;;;;;21.43;3.17;;;;;;;-147.27;100.00;65176.34;5044036;28;20037;-51
2022/06/28 08:09:26;;;;;;;22.73;4.00;;;;;;;-147.27;100.00;65176.34;5043042;28;20056;-48
2022/06/28 08:11:52;;;;;;;16.25;6.05;;;;;;;-147.27;100.00;65176.34;5041277;28;20038;-53
2022/06/28 08:14:19;;;;;;;25.60;5.70;;;;;;;-147.27;100.00;65176.34;5045408;28;20049;-52
2022/06/28 08:16:45;;;;;;;;;;;;;;;-147.27;100.00;65176.34;5044223;28;20037;-52
2022/06/28 08:19:15;;;;;;;18.58;6.20;;;;;;;-147.27;100.00;65176.34;5044183;28;19913;-53
2022/06/28 08:21:42;;;;;;;70.90;21.27;;;;;;;-147.27;100.00;65176.34;5042097;28;20064;-49
2022/06/28 08:24:09;;;;;;;32.30;8.37;;;;;;;-147.27;100.00;65176.34;5043479;28;20037;-53
2022/06/28 08:26:42;;;;;;;14.83;3.87;;;;;;;-147.27;100.00;65176.34;5042587;28;20038;-52
2022/06/28 08:29:13;;;;;;;19.97;5.17;;;;;;;-147.27;100.00;65176.34;5035310;28;20100;-47
2022/06/28 08:31:39;;;;;;;24.67;6.83;;;;;;;-147.27;100.00;65176.34;5047754;28;20034;-50
2022/06/28 08:34:05;;;;;;;103.28;39.88;;;;;;;-147.27;100.00;65176.34;4992178;28;20054;-48
2022/06/28 08:36:31;;;;;;;;;;;;;;;-147.27;100.00;65176.34;4976605;28;20053;-51
2022/06/28 08:38:56;;;;;;;30.10;11.30;;;;;;;-147.27;100.00;65176.34;4980600;28;19978;-50
2022/06/28 08:41:25;;;;;;;14.80;3.33;;;;;;;-147.27;100.00;65176.34;4978405;28;20031;-49
2022/06/28 08:43:52;;;;;;;11.60;4.30;;;;;;;-147.27;100.00;65176.34;5006217;28;20053;-49
2022/06/28 08:46:19;;;;;;;12.30;2.20;;;;;;;-147.27;100.00;65176.34;4976398;28;20031;-52
2022/06/28 08:48:51;;;;;;;10.07;2.20;;;;;;;-147.27;100.00;65176.34;4975678;28;20031;-49
2022/06/28 08:51:18;;;;;;;9.70;1.83;;;;;;;-147.27;100.00;65176.34;5000369;28;20070;-52
2022/06/28 08:53:46;;;;;;;11.50;2.17;;;;;;;-147.27;100.00;65176.34;4975462;28;20054;-52
2022/06/28 08:56:14;;;;;;;12.17;2.10;;;;;;;-147.27;100.00;65176.34;4975105;28;20031;-51
2022/06/28 08:58:44;;;;;;;7.77;2.07;;;;;;;-147.27;100.00;65176.34;4977978;28;20043;-49
2022/06/28 09:01:11;;;;;;;8.17;1.90;;;;;;;-147.27;100.00;65176.34;4978164;28;20086;-52
2022/06/28 09:03:37;;;;;;;8.73;2.07;;;;;;;-147.27;100.00;65176.34;4973785;28;20043;-51
2022/06/28 09:06:03;;;;;;;6.78;1.40;;;;;;;-147.27;100.00;65176.34;4976319;28;20039;-51
2022/06/28 09:08:29;;;;;;;7.17;1.80;;;;;;;-147.27;100.00;65176.34;4980012;28;20035;-51
2022/06/28 09:10:55;;;;;;;;;;;;;;;-147.27;100.00;65176.34;4978748;28;20032;-57
2022/06/28 09:13:21;;;;;;;6.50;1.60;;;;;;;-147.27;100.00;65176.34;4981183;28;19921;-51
2022/06/28 09:15:54;;;;;;;;;;;;;;;-147.27;100.00;65176.34;4981716;28;20053;-53
2022/06/28 09:18:24;;;;;;;5.67;1.50;;;;;;;-147.27;100.00;65176.34;4979447;28;19928;-50
2022/06/28 09:20:52;;;;;;;7.30;1.80;;;;;;;-147.27;100.00;65176.34;4977012;28;20031;-49
2022/06/28 09:23:24;;;;;;;4.53;1.13;;;;;;;-147.27;100.00;65176.34;4980881;28;20039;-50
2022/06/28 09:25:51;;;;;;;6.60;1.43;;;;;;;-147.27;100.00;65176.34;4977610;28;20060;-49
2022/06/28 09:28:27;;;;;;;9.20;2.07;;;;;;;-147.27;100.00;65176.34;4978875;28;20031;-53
2022/06/28 09:30:52;;;;;;;10.90;1.53;;;;;;;-147.27;100.00;65176.34;4976086;28;20078;-54
2022/06/28 09:33:26;;;;;;;4.03;1.63;;;;;;;-147.27;100.00;65176.34;4978618;28;20130;-51
2022/06/28 09:35:52;;;;;;;9.37;1.60;;;;;;;-147.27;100.00;65176.34;4979911;28;20098;-51
2022/06/28 09:38:32;;;;;;;9.35;1.35;;;;;;;-147.27;100.00;65176.34;4980222;28;20035;-48
2022/06/28 09:41:00;;;;;;;9.63;1.80;;;;;;;-147.27;100.00;65176.34;4977243;28;20038;-52
2022/06/28 09:43:32;;;;;;;7.27;1.70;;;;;;;-147.27;100.00;65176.34;4982437;28;20045;-50
2022/06/28 09:46:01;;;;;;;9.47;1.60;;;;;;;-147.27;100.00;65176.34;4982651;28;20035;-49
2022/06/28 09:48:32;;;;;;;6.10;1.40;;;;;;;-147.27;100.00;65176.34;4981483;28;20050;-50
2022/06/28 09:50:58;;;;;;;7.47;1.30;;;;;;;-147.27;100.00;65176.34;4975109;28;20035;-50
2022/06/28 09:53:27;;;;;;;5.30;1.45;;;;;;;-147.27;100.00;65176.34;4980068;28;20075;-51
2022/06/28 09:55:57;;;;;;;6.20;1.67;;;;;;;-147.27;100.00;65176.34;4983714;28;20039;-53
2022/06/28 09:58:22;;;;;;;11.10;1.83;;;;;;;-147.27;100.00;65176.34;4979355;28;20042;-49
2022/06/28 10:00:49;;;;;;;;;;;;;;;-147.27;100.00;65176.34;4976143;28;20035;-52
2022/06/28 10:03:15;;;;;;;7.13;1.67;;;;;;;-147.27;100.00;65176.34;4975632;28;19930;-53
2022/06/28 10:05:41;;;;;;;11.23;2.15;;;;;;;-147.27;100.00;65176.34;4984312;28;20061;-50
2022/06/28 10:08:07;;;;;;;7.03;1.40;;;;;;;-147.27;100.00;65176.34;4977875;28;20049;-53
2022/06/28 10:10:33;;;;;;;11.27;4.40;;;;;;;-147.27;100.00;65176.34;4982132;28;20031;-49
2022/06/28 10:16:08;;;;;;;13.40;5.00;;;;;;;-147.27;100.00;65176.34;4978293;28;20035;-50
2022/06/28 10:18:34;;;;;;;10.02;3.40;;;;;;;-147.27;100.00;65176.34;4979947;28;20046;-54
2022/06/28 10:21:00;;;;;;;6.55;2.60;;;;;;;-147.27;100.00;65176.34;4979653;28;20836;-51
2022/06/28 10:23:33;;;;;;;4.80;1.40;;;;;;;-147.27;100.00;65176.34;4976027;28;20047;-50
2022/06/28 10:26:17;;;;;;;10.30;3.63;;;;;;;-147.27;100.00;65176.34;4982311;28;20034;-52
2022/06/28 10:29:06;;;;;;;54.53;26.52;;;;;;;-147.27;100.00;65176.34;4979237;28;20094;-48
2022/06/28 10:31:36;;;;;;;22.27;10.88;;;;;;;-147.27;100.00;65176.34;4978424;28;20034;-50
2022/06/28 10:34:07;;;;;;;7.72;2.42;;;;;;;-147.27;100.00;65176.34;4980581;28;20067;-49
2022/06/28 10:36:53;;;;;;;8.48;2.15;;;;;;;-147.27;100.00;65176.34;4977371;28;20045;-51
2022/06/28 10:39:23;;;;;;;9.20;2.47;;;;;;;-147.27;100.00;65176.34;4979719;28;20053;-52
2022/06/28 10:42:13;;;;;;;7.85;2.05;;;;;;;-147.27;100.00;65176.34;4977942;28;20058;-52
2022/06/28 10:44:38;;;;;;;6.80;1.95;;;;;;;-147.27;100.00;65176.34;4976420;28;20046;-51
2022/06/28 10:47:04;;;;;;;7.55;1.40;;;;;;;-147.27;100.00;65176.34;4980369;28;20053;-51
2022/06/28 10:49:42;;;;;;;6.00;2.47;;;;;;;-147.27;100.00;65176.34;4977485;28;20050;-48
2022/06/28 10:52:12;;;;;;;5.63;2.28;;;;;;;-147.27;100.00;65176.34;4978965;28;20035;-52
2022/06/28 10:54:38;;;;;;;17.52;8.27;;;;;;;-147.27;100.00;65176.34;4983077;28;20046;-50
2022/06/28 10:57:24;;;;;;;13.90;6.40;;;;;;;-147.27;100.00;65176.34;4979548;28;20030;-49
2022/06/28 10:59:55;;;;;;;23.65;8.70;;;;;;;-147.27;100.00;65176.34;4973244;28;20062;-50
2022/06/28 11:02:22;;;;;;;7.85;3.00;;;;;;;-147.27;100.00;65176.34;4976256;28;20077;-49
2022/06/28 11:05:09;;;;;;;4.50;1.80;;;;;;;-147.27;100.00;65176.34;4976560;28;20106;-51
2022/06/28 11:07:35;;;;;;;9.68;3.80;;;;;;;-147.27;100.00;65176.34;4974837;28;20046;-48
2022/06/28 11:10:00;;;;;;;9.25;2.42;;;;;;;-147.27;100.00;65176.34;4976579;28;20106;-49
2022/06/28 11:12:31;;;;;;;7.13;1.80;;;;;;;-147.27;100.00;65176.34;4976488;28;20043;-53
2022/06/28 11:15:25;;;;;;;3.88;1.13;;;;;;;-147.27;100.00;65176.34;4978543;28;20050;-50
2022/06/28 11:17:51;;;;;;;6.20;1.65;;;;;;;-147.27;100.00;65176.34;5000252;28;20058;-49
2022/06/28 11:20:21;;;;;;;2.83;1.25;;;;;;;-147.27;100.00;65176.34;4976468;28;20037;-50
2022/06/28 11:22:49;;;;;;;5.03;1.23;;;;;;;-147.27;100.00;65176.34;4978908;28;20087;-49
2022/06/28 11:25:21;;;;;;;7.45;1.50;;;;;;;-147.27;100.00;65176.34;4977006;28;20035;-51
2022/06/28 11:27:52;;;;;;;7.50;1.58;;;;;;;-147.27;100.00;65176.34;4977159;28;20221;-49
2022/06/28 11:30:20;;;;;;;6.50;1.80;;;;;;;-147.27;100.00;65176.34;4974054;28;20042;-48